No 31 Takemaru — JG5731 — position and weather

sailwx.info

Track history (hours):
 
Tides and Currents Weather Stations Pressure Air Temp Water Temp Dewpoint Dewpoint Depression Visibility Wind Speed Wind Dir Waves Ship Positions

No 31 Takemaru

Last reported at 2017-May-28 12:35 UTC. Time now 2017-May-28 14:10 UTC.
Position N 34°39' E 135°28'.

Length 31 m; draft 2.5 m.

Type: Tug. MMSI: 431000439.

Date/timePositionNaut miles runAvg speedWind from/ knotsBaromVisibWave heightAir tempDewpointWater temp
2017-May-28 12:35N 34°39' E 135°28'0 0.0
2017-May-28 12:21N 34°39' E 135°28'0 0.0
2017-May-28 11:58N 34°39' E 135°28'0 0.0
2017-May-28 11:26N 34°39' E 135°28'0 0.0
2017-May-28 10:59N 34°39' E 135°28'0 0.0
2017-May-28 10:29N 34°39' E 135°28'0 0.0
2017-May-28 00:37N 34°39' E 135°28'0 0.0
2017-May-28 00:26N 34°39' E 135°28'0 0.0
2017-May-27 23:47N 34°39' E 135°28'0 0.0
2017-May-27 23:16N 34°39' E 135°28'0 0.0
2017-May-27 22:43N 34°39' E 135°28'0 0.0
2017-May-27 22:16N 34°39' E 135°28'0 0.0
2017-May-27 21:51N 34°39' E 135°28'0 0.0
2017-May-27 21:26N 34°39' E 135°28'0 0.0
2017-May-27 20:53N 34°39' E 135°28'0 0.0
2017-May-27 20:30N 34°39' E 135°28'0 0.0
2017-May-27 17:48N 34°39' E 135°28'0 0.0
2017-May-27 17:30N 34°39' E 135°28'0 0.0
2017-May-27 17:00N 34°39' E 135°28'0 0.0
2017-May-27 16:29N 34°39' E 135°28'0 0.0
2017-May-27 15:10N 34°39' E 135°28'0 0.0
2017-May-27 14:58N 34°39' E 135°28'0 0.0
2017-May-27 14:28N 34°39' E 135°28'0 0.0
2017-May-27 13:15N 34°39' E 135°28'0 0.0
2017-May-27 11:50N 34°39' E 135°28'0 0.0
2017-May-27 11:25N 34°39' E 135°28'0 0.0
2017-May-27 10:40N 34°39' E 135°28'0 0.0
2017-May-27 10:23N 34°39' E 135°28'0 0.0
2017-May-27 09:53N 34°39' E 135°28'3 8.1
2017-May-27 09:30N 34°39' E 135°24'1 1.9
2017-May-27 08:59N 34°38' E 135°23'0 0.9
2017-May-27 08:30N 34°38' E 135°24'0 0.9
2017-May-27 08:00N 34°39' E 135°24'1 2.4
2017-May-27 07:29N 34°39' E 135°26'2 1.4
2017-May-27 06:08N 34°39' E 135°28'0 0.0
2017-May-27 05:59N 34°39' E 135°28'0 0.0
2017-May-27 05:23N 34°39' E 135°28'0 0.0
2017-May-27 04:59N 34°39' E 135°28'0 0.0
2017-May-27 04:19N 34°39' E 135°28'0 0.0
2017-May-27 03:03N 34°39' E 135°28'0 0.0
2017-May-27 00:32N 34°39' E 135°28'0 0.0
2017-May-27 00:26N 34°39' E 135°28'0 0.0
2017-May-26 23:56N 34°39' E 135°28'0 0.0
2017-May-26 23:29N 34°39' E 135°28'0 0.0
2017-May-26 23:00N 34°39' E 135°28'0 0.0
2017-May-26 22:26N 34°39' E 135°28'0 0.0
2017-May-26 21:59N 34°39' E 135°28'0 0.2
2017-May-26 21:30N 34°39' E 135°28'3 6.2
2017-May-26 21:00N 34°39' E 135°24'1 1.6
2017-May-26 20:30N 34°39' E 135°25'3 5.2
2017-May-26 20:00N 34°39' E 135°28'0 0.0
2017-May-26 19:30N 34°39' E 135°28'0 0.0
2017-May-26 19:00N 34°39' E 135°28'0 0.0
2017-May-26 18:30N 34°39' E 135°28'0 0.0
2017-May-26 18:00N 34°39' E 135°28'0 0.0
2017-May-26 17:30N 34°39' E 135°28'0 0.0
2017-May-26 17:00N 34°39' E 135°28'0 0.0
2017-May-26 16:30N 34°39' E 135°28'0 0.0
2017-May-26 16:00N 34°39' E 135°28'0 0.0
2017-May-26 15:30N 34°39' E 135°28'0 0.0
2017-May-26 14:59N 34°39' E 135°28'0 0.0
2017-May-26 13:59N 34°39' E 135°28'3 5.8
2017-May-26 13:30N 34°39' E 135°25'0 0.6
2017-May-26 13:00N 34°39' E 135°24'2 3.7
2017-May-26 12:30N 34°38' E 135°23'1 2.1
2017-May-26 12:00N 34°38' E 135°24'4 7.0
2017-May-26 11:30N 34°39' E 135°28'0 0.0
2017-May-26 11:00N 34°39' E 135°28'0 0.0
2017-May-26 10:30N 34°39' E 135°28'0 0.0
2017-May-26 09:58N 34°39' E 135°28'0 0.0
2017-May-26 09:30N 34°39' E 135°28'0 0.0
2017-May-26 09:00N 34°39' E 135°28'0 0.0
2017-May-26 08:25N 34°39' E 135°28'0 0.0
2017-May-26 07:02N 34°39' E 135°28'0 0.0
2017-May-26 06:45N 34°39' E 135°28'0 0.0
2017-May-26 06:26N 34°39' E 135°28'0 0.0
2017-May-26 05:51N 34°39' E 135°28'0 0.0
2017-May-26 05:24N 34°39' E 135°28'0 0.0
2017-May-26 04:43N 34°39' E 135°28'0 0.0
2017-May-26 04:29N 34°39' E 135°28'0 0.0
2017-May-26 03:52N 34°39' E 135°28'0 0.0
2017-May-26 03:30N 34°39' E 135°28'0 0.0
2017-May-26 02:50N 34°39' E 135°28'0 0.0
2017-May-26 02:24N 34°39' E 135°28'0 0.0
2017-May-26 01:41N 34°39' E 135°28'0 0.0
2017-May-26 01:19N 34°39' E 135°28'0 0.0
2017-May-26 01:00N 34°39' E 135°28'0 0.0
2017-May-26 00:28N 34°39' E 135°28'0 0.0
2017-May-26 00:00N 34°39' E 135°28'1 2.9
2017-May-25 23:30N 34°40' E 135°27'0 0.1
2017-May-25 23:00N 34°40' E 135°27'2 3.2
2017-May-25 22:30N 34°39' E 135°25'1 1.2
2017-May-25 22:00N 34°39' E 135°24'0 0.3
2017-May-25 21:29N 34°39' E 135°25'2 4.9
2017-May-25 21:00N 34°39' E 135°27'1 1.1
2017-May-25 20:30N 34°39' E 135°28'0 0.0
2017-May-25 19:58N 34°39' E 135°28'0 0.0
2017-May-25 19:30N 34°39' E 135°28'0 0.0
2017-May-25 19:00N 34°39' E 135°28'0 0.0
2017-May-25 18:14N 34°39' E 135°28'0 0.0
2017-May-25 18:00N 34°39' E 135°28'0 0.0
2017-May-25 17:30N 34°39' E 135°28'0 0.0
2017-May-25 17:00N 34°39' E 135°28'0 0.0
2017-May-25 16:30N 34°39' E 135°28'0 0.0
2017-May-25 16:00N 34°39' E 135°28'0 0.0
2017-May-25 15:30N 34°39' E 135°28'0 0.0
2017-May-25 15:00N 34°39' E 135°28'0 0.0
2017-May-25 14:28N 34°39' E 135°28'0 0.0
2017-May-25 13:22N 34°39' E 135°28'0 0.0
2017-May-25 12:59N 34°39' E 135°28'0 0.0
2017-May-25 12:30N 34°39' E 135°28'0 0.0
2017-May-25 11:59N 34°39' E 135°28'0 0.0
2017-May-25 11:17N 34°39' E 135°28'0 0.0
2017-May-25 11:00N 34°39' E 135°28'0 0.0
2017-May-25 10:27N 34°39' E 135°28'0 0.0
2017-May-25 09:52N 34°39' E 135°28'0 0.0
2017-May-25 09:28N 34°39' E 135°28'1 2.2
2017-May-25 09:00N 34°39' E 135°27'2 4.4
2017-May-25 08:30N 34°38' E 135°24'0 0.3
2017-May-25 08:00N 34°38' E 135°24'0 0.1
2017-May-25 07:30N 34°38' E 135°24'3 6.2
2017-May-25 07:00N 34°39' E 135°28'3 5.4
2017-May-25 06:30N 34°39' E 135°25'611.0
2017-May-25 06:00N 34°33' E 135°23'3 5.1
2017-May-25 05:30N 34°31' E 135°23'1 2.7
2017-May-25 04:58N 34°32' E 135°23'0 0.4
2017-May-25 04:27N 34°32' E 135°23'0 0.2
2017-May-25 04:00N 34°32' E 135°22'1 2.4
2017-May-25 03:25N 34°33' E 135°24'3 6.7
2017-May-25 03:00N 34°35' E 135°26'0 1.0
2017-May-25 02:30N 34°35' E 135°26'4 8.2
2017-May-25 02:00N 34°39' E 135°24'1 1.5
2017-May-25 01:29N 34°40' E 135°24'0 0.0
2017-May-25 00:56N 34°40' E 135°24'0 0.0
2017-May-25 00:30N 34°40' E 135°24'0 0.0
2017-May-25 00:00N 34°40' E 135°24'0 0.0
2017-May-24 23:30N 34°40' E 135°24'1 1.4
2017-May-24 22:59N 34°39' E 135°24'1 2.6
2017-May-24 22:29N 34°38' E 135°23'0 0.6
2017-May-24 22:00N 34°38' E 135°23'0 0.7
2017-May-24 21:30N 34°38' E 135°24'4 0.3
2017-May-24 09:33N 34°39' E 135°28'0 0.0
2017-May-24 09:21N 34°39' E 135°28'3 8.6
2017-May-24 09:00N 34°39' E 135°24'0 0.1
2017-May-24 08:30N 34°39' E 135°24'0 1.0
2017-May-24 08:00N 34°39' E 135°25'0 0.3
2017-May-24 07:30N 34°39' E 135°25'2 3.7
2017-May-24 07:00N 34°38' E 135°23'5 9.7
2017-May-24 06:29N 34°33' E 135°23'2 1.3
2017-May-24 04:51N 34°31' E 135°23'5 9.9
2017-May-24 04:23N 34°35' E 135°23'2 6.2
2017-May-24 04:00N 34°37' E 135°25'0 0.6
2017-May-24 03:30N 34°37' E 135°25'2 4.2
2017-May-24 03:00N 34°39' E 135°27'1 0.2
2017-May-24 00:04N 34°39' E 135°28'1 8.7
2017-May-23 23:58N 34°39' E 135°27'1 2.4
2017-May-23 23:30N 34°39' E 135°26'1 2.8
2017-May-23 23:00N 34°39' E 135°27'0 0.1
2017-May-23 15:17N 34°39' E 135°28'310.4
2017-May-23 15:00N 34°39' E 135°24'0 0.4
2017-May-23 14:00N 34°39' E 135°25'2 0.3
2017-May-23 07:14N 34°39' E 135°28'310.6
2017-May-23 07:00N 34°39' E 135°25'0 1.0
2017-May-23 06:30N 34°39' E 135°24'3 0.5
2017-May-22 23:45N 34°39' E 135°28'0 0.0
2017-May-22 23:27N 34°39' E 135°28'2 4.4
2017-May-22 23:00N 34°39' E 135°26'1 2.4
2017-May-22 22:29N 34°39' E 135°24'0 0.8
2017-May-22 22:00N 34°39' E 135°24'3 5.5
2017-May-22 21:30N 34°39' E 135°28'0 0.2
2017-May-22 20:59N 34°39' E 135°28'0 0.0
2017-May-22 20:28N 34°39' E 135°28'0 0.0
2017-May-22 18:54N 34°39' E 135°28'0 0.0
2017-May-22 18:25N 34°39' E 135°28'0 0.0
2017-May-22 09:21N 34°39' E 135°28'0 0.0
2017-May-22 09:00N 34°39' E 135°28'0 0.0
2017-May-22 08:24N 34°39' E 135°28'0 0.0
2017-May-22 07:56N 34°39' E 135°28'0 0.0
2017-May-22 07:29N 34°39' E 135°28'0 0.0
2017-May-22 06:34N 34°39' E 135°28'0 1.0
2017-May-22 06:30N 34°39' E 135°28'4 7.4
2017-May-22 06:00N 34°37' E 135°24'1 1.5
2017-May-22 05:30N 34°36' E 135°23'2 4.5
2017-May-22 05:00N 34°39' E 135°24'3 5.9
2017-May-22 04:30N 34°39' E 135°28'0 0.0
2017-May-22 02:57N 34°39' E 135°28'0 0.0
2017-May-22 02:29N 34°39' E 135°28'0 0.0
2017-May-22 01:57N 34°39' E 135°28'0 0.0
2017-May-22 01:29N 34°39' E 135°28'0 0.0
2017-May-22 01:00N 34°39' E 135°28'0 0.0
2017-May-22 00:29N 34°39' E 135°28'0 0.0
2017-May-21 23:59N 34°39' E 135°28'4 8.1
2017-May-21 23:30N 34°38' E 135°23'611.5
2017-May-21 22:58N 34°31' E 135°23'1 0.9
2017-May-21 22:23N 34°31' E 135°23'1 3.1
2017-May-21 21:59N 34°32' E 135°23'0 0.4
2017-May-21 21:26N 34°32' E 135°23'4 9.3
2017-May-21 21:00N 34°36' E 135°23'4 8.2
2017-May-21 20:28N 34°39' E 135°28'0 0.7
2017-May-21 19:59N 34°39' E 135°28'0 0.0
2017-May-21 19:26N 34°39' E 135°28'0 0.0
2017-May-21 19:00N 34°39' E 135°28'0 0.0
2017-May-21 18:02N 34°39' E 135°28'0 0.0
2017-May-21 18:00N 34°39' E 135°28'0 0.0
2017-May-21 17:23N 34°39' E 135°28'0 0.0
2017-May-21 17:00N 34°39' E 135°28'0 0.0
2017-May-21 16:30N 34°39' E 135°28'0 0.0
2017-May-21 16:00N 34°39' E 135°28'0 0.0
2017-May-21 15:30N 34°39' E 135°28'0 0.0
2017-May-21 15:00N 34°39' E 135°28'0 0.0
2017-May-21 14:29N 34°39' E 135°28'0 0.0
2017-May-21 13:30N 34°39' E 135°28'0 0.0
2017-May-21 13:00N 34°39' E 135°28'0 0.0
2017-May-21 12:30N 34°39' E 135°28'0 0.0
2017-May-21 12:00N 34°39' E 135°28'1 2.9
2017-May-21 11:29N 34°38' E 135°26'1 1.8
2017-May-21 11:00N 34°39' E 135°26'1 2.8
2017-May-21 10:29N 34°39' E 135°24'3 4.4
2017-May-21 09:47N 34°39' E 135°28'0 0.0
2017-May-21 09:28N 34°39' E 135°28'0 0.0
2017-May-21 09:00N 34°39' E 135°28'0 0.0
2017-May-21 08:29N 34°39' E 135°28'0 0.0
2017-May-21 07:59N 34°39' E 135°28'0 0.0
2017-May-21 07:28N 34°39' E 135°28'0 0.0
2017-May-21 07:00N 34°39' E 135°28'0 0.0
2017-May-21 06:30N 34°39' E 135°28'0 0.0
2017-May-21 06:00N 34°39' E 135°28'0 0.0
2017-May-21 05:29N 34°39' E 135°28'1 1.9
2017-May-21 05:00N 34°39' E 135°27'0 1.0
2017-May-21 04:30N 34°38' E 135°26'0 0.5
2017-May-21 04:00N 34°39' E 135°27'1 0.3
2017-May-21 00:01N 34°39' E 135°28'0 0.0
2017-May-20 23:53N 34°39' E 135°28'0 0.0
2017-May-20 23:30N 34°39' E 135°28'0 0.0
2017-May-20 23:00N 34°39' E 135°28'1 2.6
2017-May-20 22:30N 34°39' E 135°26'1 2.6
2017-May-20 22:00N 34°39' E 135°25'1 1.2
2017-May-20 21:30N 34°39' E 135°24'2 4.7
2017-May-20 20:59N 34°39' E 135°27'1 1.0
2017-May-20 20:20N 34°39' E 135°28'0 0.0
2017-May-20 19:31N 34°39' E 135°28'0 0.0
2017-May-20 19:15N 34°39' E 135°28'0 0.0
2017-May-20 18:31N 34°39' E 135°28'0 0.0
2017-May-20 18:01N 34°39' E 135°28'0 0.0
2017-May-20 18:00N 34°39' E 135°28'0 0.0
2017-May-20 17:22N 34°39' E 135°28'0 0.0
2017-May-20 16:52N 34°39' E 135°28'0 0.0
2017-May-20 16:30N 34°39' E 135°28'0 0.0
2017-May-20 15:59N 34°39' E 135°28'0 0.0
2017-May-20 15:09N 34°39' E 135°28'0 0.0
2017-May-20 14:41N 34°39' E 135°28'0 0.0
2017-May-20 14:00N 34°39' E 135°28'0 0.0
2017-May-20 13:30N 34°39' E 135°28'0 0.0
2017-May-20 13:00N 34°39' E 135°28'0 0.0
2017-May-20 12:30N 34°39' E 135°28'3 6.3
2017-May-20 12:00N 34°39' E 135°24'0 0.1
2017-May-20 11:30N 34°39' E 135°24'0 0.1
2017-May-20 11:00N 34°39' E 135°24'2 4.1
2017-May-20 10:30N 34°39' E 135°27'1 1.8
2017-May-20 09:53N 34°39' E 135°28'0 0.0
2017-May-20 09:30N 34°39' E 135°28'0 0.0
2017-May-20 08:51N 34°39' E 135°28'0 0.0
2017-May-20 08:30N 34°39' E 135°28'0 0.0
2017-May-19 23:26N 34°39' E 135°28'1 3.5
2017-May-19 23:00N 34°40' E 135°26'1 3.0
2017-May-19 22:30N 34°39' E 135°25'0 0.7
2017-May-19 22:00N 34°39' E 135°24'2 4.5
2017-May-19 21:30N 34°39' E 135°27'1 0.1
2017-May-19 16:55N 34°39' E 135°28'0 0.0
2017-May-19 16:30N 34°39' E 135°28'0 0.0
2017-May-19 16:00N 34°39' E 135°28'0 0.0
2017-May-19 15:30N 34°39' E 135°28'0 0.0
2017-May-19 15:00N 34°39' E 135°28'0 0.0
2017-May-19 14:00N 34°39' E 135°28'0 0.0
2017-May-19 13:30N 34°39' E 135°28'0 0.0
2017-May-19 13:00N 34°39' E 135°28'0 0.0
2017-May-19 12:30N 34°39' E 135°28'0 0.0
2017-May-19 12:00N 34°39' E 135°28'0 0.0
2017-May-19 11:29N 34°39' E 135°28'0 0.0
2017-May-19 09:53N 34°39' E 135°28'0 0.0
2017-May-19 09:22N 34°39' E 135°28'3 8.9
2017-May-19 09:00N 34°39' E 135°24'3 3.9
2017-May-19 08:22N 34°40' E 135°27'0 0.1
2017-May-19 08:00N 34°40' E 135°27'0 0.0
2017-May-19 07:14N 34°40' E 135°27'0 0.0
2017-May-19 07:00N 34°40' E 135°27'0 0.0
2017-May-19 06:30N 34°40' E 135°27'0 0.1
2017-May-19 05:59N 34°40' E 135°27'0 0.1
2017-May-19 05:21N 34°40' E 135°27'0 0.0
2017-May-19 05:00N 34°40' E 135°27'0 0.0
2017-May-19 04:28N 34°40' E 135°27'0 0.0
2017-May-19 03:59N 34°40' E 135°27'0 0.0
2017-May-19 03:25N 34°40' E 135°27'0 0.7
2017-May-19 03:00N 34°40' E 135°26'1 1.8
2017-May-19 02:30N 34°39' E 135°25'2 0.6
2017-May-18 22:58N 34°39' E 135°28'0 0.0
2017-May-18 22:21N 34°39' E 135°28'0 0.0
2017-May-18 21:47N 34°39' E 135°28'2 8.7
2017-May-18 21:30N 34°39' E 135°25'1 1.3
2017-May-18 21:00N 34°39' E 135°24'3 5.3
2017-May-18 20:30N 34°39' E 135°27'  
Track history (hours):
 
Tides and Currents Weather Stations Pressure Air Temp Water Temp Dewpoint Dewpoint Depression Visibility Wind Speed Wind Dir Waves Ship Positions

No 31 Takemaru

Last reported at 2017-May-28 12:35 UTC. Time now 2017-May-28 14:10 UTC.
Position N 34°39' E 135°28'.

Length 31 m; draft 2.5 m.

Type: Tug. MMSI: 431000439.

Date/timePositionNaut miles runAvg speedWind from/ knotsBaromVisibWave heightAir tempDewpointWater temp
2017-May-28 12:35N 34°39' E 135°28'0 0.0
2017-May-28 12:21N 34°39' E 135°28'0 0.0
2017-May-28 11:58N 34°39' E 135°28'0 0.0
2017-May-28 11:26N 34°39' E 135°28'0 0.0
2017-May-28 10:59N 34°39' E 135°28'0 0.0
2017-May-28 10:29N 34°39' E 135°28'0 0.0
2017-May-28 00:37N 34°39' E 135°28'0 0.0
2017-May-28 00:26N 34°39' E 135°28'0 0.0
2017-May-27 23:47N 34°39' E 135°28'0 0.0
2017-May-27 23:16N 34°39' E 135°28'0 0.0
2017-May-27 22:43N 34°39' E 135°28'0 0.0
2017-May-27 22:16N 34°39' E 135°28'0 0.0
2017-May-27 21:51N 34°39' E 135°28'0 0.0
2017-May-27 21:26N 34°39' E 135°28'0 0.0
2017-May-27 20:53N 34°39' E 135°28'0 0.0
2017-May-27 20:30N 34°39' E 135°28'0 0.0
2017-May-27 17:48N 34°39' E 135°28'0 0.0
2017-May-27 17:30N 34°39' E 135°28'0 0.0
2017-May-27 17:00N 34°39' E 135°28'0 0.0
2017-May-27 16:29N 34°39' E 135°28'0 0.0
2017-May-27 15:10N 34°39' E 135°28'0 0.0
2017-May-27 14:58N 34°39' E 135°28'0 0.0
2017-May-27 14:28N 34°39' E 135°28'0 0.0
2017-May-27 13:15N 34°39' E 135°28'0 0.0
2017-May-27 11:50N 34°39' E 135°28'0 0.0
2017-May-27 11:25N 34°39' E 135°28'0 0.0
2017-May-27 10:40N 34°39' E 135°28'0 0.0
2017-May-27 10:23N 34°39' E 135°28'0 0.0
2017-May-27 09:53N 34°39' E 135°28'3 8.1
2017-May-27 09:30N 34°39' E 135°24'1 1.9
2017-May-27 08:59N 34°38' E 135°23'0 0.9
2017-May-27 08:30N 34°38' E 135°24'0 0.9
2017-May-27 08:00N 34°39' E 135°24'1 2.4
2017-May-27 07:29N 34°39' E 135°26'2 1.4
2017-May-27 06:08N 34°39' E 135°28'0 0.0
2017-May-27 05:59N 34°39' E 135°28'0 0.0
2017-May-27 05:23N 34°39' E 135°28'0 0.0
2017-May-27 04:59N 34°39' E 135°28'0 0.0
2017-May-27 04:19N 34°39' E 135°28'0 0.0
2017-May-27 03:03N 34°39' E 135°28'0 0.0
2017-May-27 00:32N 34°39' E 135°28'0 0.0
2017-May-27 00:26N 34°39' E 135°28'0 0.0
2017-May-26 23:56N 34°39' E 135°28'0 0.0
2017-May-26 23:29N 34°39' E 135°28'0 0.0
2017-May-26 23:00N 34°39' E 135°28'0 0.0
2017-May-26 22:26N 34°39' E 135°28'0 0.0
2017-May-26 21:59N 34°39' E 135°28'0 0.2
2017-May-26 21:30N 34°39' E 135°28'3 6.2
2017-May-26 21:00N 34°39' E 135°24'1 1.6
2017-May-26 20:30N 34°39' E 135°25'3 5.2
2017-May-26 20:00N 34°39' E 135°28'0 0.0
2017-May-26 19:30N 34°39' E 135°28'0 0.0
2017-May-26 19:00N 34°39' E 135°28'0 0.0
2017-May-26 18:30N 34°39' E 135°28'0 0.0
2017-May-26 18:00N 34°39' E 135°28'0 0.0
2017-May-26 17:30N 34°39' E 135°28'0 0.0
2017-May-26 17:00N 34°39' E 135°28'0 0.0
2017-May-26 16:30N 34°39' E 135°28'0 0.0
2017-May-26 16:00N 34°39' E 135°28'0 0.0
2017-May-26 15:30N 34°39' E 135°28'0 0.0
2017-May-26 14:59N 34°39' E 135°28'0 0.0
2017-May-26 13:59N 34°39' E 135°28'3 5.8
2017-May-26 13:30N 34°39' E 135°25'0 0.6
2017-May-26 13:00N 34°39' E 135°24'2 3.7
2017-May-26 12:30N 34°38' E 135°23'1 2.1
2017-May-26 12:00N 34°38' E 135°24'4 7.0
2017-May-26 11:30N 34°39' E 135°28'0 0.0
2017-May-26 11:00N 34°39' E 135°28'0 0.0
2017-May-26 10:30N 34°39' E 135°28'0 0.0
2017-May-26 09:58N 34°39' E 135°28'0 0.0
2017-May-26 09:30N 34°39' E 135°28'0 0.0
2017-May-26 09:00N 34°39' E 135°28'0 0.0
2017-May-26 08:25N 34°39' E 135°28'0 0.0
2017-May-26 07:02N 34°39' E 135°28'0 0.0
2017-May-26 06:45N 34°39' E 135°28'0 0.0
2017-May-26 06:26N 34°39' E 135°28'0 0.0
2017-May-26 05:51N 34°39' E 135°28'0 0.0
2017-May-26 05:24N 34°39' E 135°28'0 0.0
2017-May-26 04:43N 34°39' E 135°28'0 0.0
2017-May-26 04:29N 34°39' E 135°28'0 0.0
2017-May-26 03:52N 34°39' E 135°28'0 0.0
2017-May-26 03:30N 34°39' E 135°28'0 0.0
2017-May-26 02:50N 34°39' E 135°28'0 0.0
2017-May-26 02:24N 34°39' E 135°28'0 0.0
2017-May-26 01:41N 34°39' E 135°28'0 0.0
2017-May-26 01:19N 34°39' E 135°28'0 0.0
2017-May-26 01:00N 34°39' E 135°28'0 0.0
2017-May-26 00:28N 34°39' E 135°28'0 0.0
2017-May-26 00:00N 34°39' E 135°28'1 2.9
2017-May-25 23:30N 34°40' E 135°27'0 0.1
2017-May-25 23:00N 34°40' E 135°27'2 3.2
2017-May-25 22:30N 34°39' E 135°25'1 1.2
2017-May-25 22:00N 34°39' E 135°24'0 0.3
2017-May-25 21:29N 34°39' E 135°25'2 4.9
2017-May-25 21:00N 34°39' E 135°27'1 1.1
2017-May-25 20:30N 34°39' E 135°28'0 0.0
2017-May-25 19:58N 34°39' E 135°28'0 0.0
2017-May-25 19:30N 34°39' E 135°28'0 0.0
2017-May-25 19:00N 34°39' E 135°28'0 0.0
2017-May-25 18:14N 34°39' E 135°28'0 0.0
2017-May-25 18:00N 34°39' E 135°28'0 0.0
2017-May-25 17:30N 34°39' E 135°28'0 0.0
2017-May-25 17:00N 34°39' E 135°28'0 0.0
2017-May-25 16:30N 34°39' E 135°28'0 0.0
2017-May-25 16:00N 34°39' E 135°28'0 0.0
2017-May-25 15:30N 34°39' E 135°28'0 0.0
2017-May-25 15:00N 34°39' E 135°28'0 0.0
2017-May-25 14:28N 34°39' E 135°28'0 0.0
2017-May-25 13:22N 34°39' E 135°28'0 0.0
2017-May-25 12:59N 34°39' E 135°28'0 0.0
2017-May-25 12:30N 34°39' E 135°28'0 0.0
2017-May-25 11:59N 34°39' E 135°28'0 0.0
2017-May-25 11:17N 34°39' E 135°28'0 0.0
2017-May-25 11:00N 34°39' E 135°28'0 0.0
2017-May-25 10:27N 34°39' E 135°28'0 0.0
2017-May-25 09:52N 34°39' E 135°28'0 0.0
2017-May-25 09:28N 34°39' E 135°28'1 2.2
2017-May-25 09:00N 34°39' E 135°27'2 4.4
2017-May-25 08:30N 34°38' E 135°24'0 0.3
2017-May-25 08:00N 34°38' E 135°24'0 0.1
2017-May-25 07:30N 34°38' E 135°24'3 6.2
2017-May-25 07:00N 34°39' E 135°28'3 5.4
2017-May-25 06:30N 34°39' E 135°25'611.0
2017-May-25 06:00N 34°33' E 135°23'3 5.1
2017-May-25 05:30N 34°31' E 135°23'1 2.7
2017-May-25 04:58N 34°32' E 135°23'0 0.4
2017-May-25 04:27N 34°32' E 135°23'0 0.2
2017-May-25 04:00N 34°32' E 135°22'1 2.4
2017-May-25 03:25N 34°33' E 135°24'3 6.7
2017-May-25 03:00N 34°35' E 135°26'0 1.0
2017-May-25 02:30N 34°35' E 135°26'4 8.2
2017-May-25 02:00N 34°39' E 135°24'1 1.5
2017-May-25 01:29N 34°40' E 135°24'0 0.0
2017-May-25 00:56N 34°40' E 135°24'0 0.0
2017-May-25 00:30N 34°40' E 135°24'0 0.0
2017-May-25 00:00N 34°40' E 135°24'0 0.0
2017-May-24 23:30N 34°40' E 135°24'1 1.4
2017-May-24 22:59N 34°39' E 135°24'1 2.6
2017-May-24 22:29N 34°38' E 135°23'0 0.6
2017-May-24 22:00N 34°38' E 135°23'0 0.7
2017-May-24 21:30N 34°38' E 135°24'4 0.3
2017-May-24 09:33N 34°39' E 135°28'0 0.0
2017-May-24 09:21N 34°39' E 135°28'3 8.6
2017-May-24 09:00N 34°39' E 135°24'0 0.1
2017-May-24 08:30N 34°39' E 135°24'0 1.0
2017-May-24 08:00N 34°39' E 135°25'0 0.3
2017-May-24 07:30N 34°39' E 135°25'2 3.7
2017-May-24 07:00N 34°38' E 135°23'5 9.7
2017-May-24 06:29N 34°33' E 135°23'2 1.3
2017-May-24 04:51N 34°31' E 135°23'5 9.9
2017-May-24 04:23N 34°35' E 135°23'2 6.2
2017-May-24 04:00N 34°37' E 135°25'0 0.6
2017-May-24 03:30N 34°37' E 135°25'2 4.2
2017-May-24 03:00N 34°39' E 135°27'1 0.2
2017-May-24 00:04N 34°39' E 135°28'1 8.7
2017-May-23 23:58N 34°39' E 135°27'1 2.4
2017-May-23 23:30N 34°39' E 135°26'1 2.8
2017-May-23 23:00N 34°39' E 135°27'0 0.1
2017-May-23 15:17N 34°39' E 135°28'310.4
2017-May-23 15:00N 34°39' E 135°24'0 0.4
2017-May-23 14:00N 34°39' E 135°25'2 0.3
2017-May-23 07:14N 34°39' E 135°28'310.6
2017-May-23 07:00N 34°39' E 135°25'0 1.0
2017-May-23 06:30N 34°39' E 135°24'3 0.5
2017-May-22 23:45N 34°39' E 135°28'0 0.0
2017-May-22 23:27N 34°39' E 135°28'2 4.4
2017-May-22 23:00N 34°39' E 135°26'1 2.4
2017-May-22 22:29N 34°39' E 135°24'0 0.8
2017-May-22 22:00N 34°39' E 135°24'3 5.5
2017-May-22 21:30N 34°39' E 135°28'0 0.2
2017-May-22 20:59N 34°39' E 135°28'0 0.0
2017-May-22 20:28N 34°39' E 135°28'0 0.0
2017-May-22 18:54N 34°39' E 135°28'0 0.0
2017-May-22 18:25N 34°39' E 135°28'0 0.0
2017-May-22 09:21N 34°39' E 135°28'0 0.0
2017-May-22 09:00N 34°39' E 135°28'0 0.0
2017-May-22 08:24N 34°39' E 135°28'0 0.0
2017-May-22 07:56N 34°39' E 135°28'0 0.0
2017-May-22 07:29N 34°39' E 135°28'0 0.0
2017-May-22 06:34N 34°39' E 135°28'0 1.0
2017-May-22 06:30N 34°39' E 135°28'4 7.4
2017-May-22 06:00N 34°37' E 135°24'1 1.5
2017-May-22 05:30N 34°36' E 135°23'2 4.5
2017-May-22 05:00N 34°39' E 135°24'3 5.9
2017-May-22 04:30N 34°39' E 135°28'0 0.0
2017-May-22 02:57N 34°39' E 135°28'0 0.0
2017-May-22 02:29N 34°39' E 135°28'0 0.0
2017-May-22 01:57N 34°39' E 135°28'0 0.0
2017-May-22 01:29N 34°39' E 135°28'0 0.0
2017-May-22 01:00N 34°39' E 135°28'0 0.0
2017-May-22 00:29N 34°39' E 135°28'0 0.0
2017-May-21 23:59N 34°39' E 135°28'4 8.1
2017-May-21 23:30N 34°38' E 135°23'611.5
2017-May-21 22:58N 34°31' E 135°23'1 0.9
2017-May-21 22:23N 34°31' E 135°23'1 3.1
2017-May-21 21:59N 34°32' E 135°23'0 0.4
2017-May-21 21:26N 34°32' E 135°23'4 9.3
2017-May-21 21:00N 34°36' E 135°23'4 8.2
2017-May-21 20:28N 34°39' E 135°28'0 0.7
2017-May-21 19:59N 34°39' E 135°28'0 0.0
2017-May-21 19:26N 34°39' E 135°28'0 0.0
2017-May-21 19:00N 34°39' E 135°28'0 0.0
2017-May-21 18:02N 34°39' E 135°28'0 0.0
2017-May-21 18:00N 34°39' E 135°28'0 0.0
2017-May-21 17:23N 34°39' E 135°28'0 0.0
2017-May-21 17:00N 34°39' E 135°28'0 0.0
2017-May-21 16:30N 34°39' E 135°28'0 0.0
2017-May-21 16:00N 34°39' E 135°28'0 0.0
2017-May-21 15:30N 34°39' E 135°28'0 0.0
2017-May-21 15:00N 34°39' E 135°28'0 0.0
2017-May-21 14:29N 34°39' E 135°28'0 0.0
2017-May-21 13:30N 34°39' E 135°28'0 0.0
2017-May-21 13:00N 34°39' E 135°28'0 0.0
2017-May-21 12:30N 34°39' E 135°28'0 0.0
2017-May-21 12:00N 34°39' E 135°28'1 2.9
2017-May-21 11:29N 34°38' E 135°26'1 1.8
2017-May-21 11:00N 34°39' E 135°26'1 2.8
2017-May-21 10:29N 34°39' E 135°24'3 4.4
2017-May-21 09:47N 34°39' E 135°28'0 0.0
2017-May-21 09:28N 34°39' E 135°28'0 0.0
2017-May-21 09:00N 34°39' E 135°28'0 0.0
2017-May-21 08:29N 34°39' E 135°28'0 0.0
2017-May-21 07:59N 34°39' E 135°28'0 0.0
2017-May-21 07:28N 34°39' E 135°28'0 0.0
2017-May-21 07:00N 34°39' E 135°28'0 0.0
2017-May-21 06:30N 34°39' E 135°28'0 0.0
2017-May-21 06:00N 34°39' E 135°28'0 0.0
2017-May-21 05:29N 34°39' E 135°28'1 1.9
2017-May-21 05:00N 34°39' E 135°27'0 1.0
2017-May-21 04:30N 34°38' E 135°26'0 0.5
2017-May-21 04:00N 34°39' E 135°27'1 0.3
2017-May-21 00:01N 34°39' E 135°28'0 0.0
2017-May-20 23:53N 34°39' E 135°28'0 0.0
2017-May-20 23:30N 34°39' E 135°28'0 0.0
2017-May-20 23:00N 34°39' E 135°28'1 2.6
2017-May-20 22:30N 34°39' E 135°26'1 2.6
2017-May-20 22:00N 34°39' E 135°25'1 1.2
2017-May-20 21:30N 34°39' E 135°24'2 4.7
2017-May-20 20:59N 34°39' E 135°27'1 1.0
2017-May-20 20:20N 34°39' E 135°28'0 0.0
2017-May-20 19:31N 34°39' E 135°28'0 0.0
2017-May-20 19:15N 34°39' E 135°28'0 0.0
2017-May-20 18:31N 34°39' E 135°28'0 0.0
2017-May-20 18:01N 34°39' E 135°28'0 0.0
2017-May-20 18:00N 34°39' E 135°28'0 0.0
2017-May-20 17:22N 34°39' E 135°28'0 0.0
2017-May-20 16:52N 34°39' E 135°28'0 0.0
2017-May-20 16:30N 34°39' E 135°28'0 0.0
2017-May-20 15:59N 34°39' E 135°28'0 0.0
2017-May-20 15:09N 34°39' E 135°28'0 0.0
2017-May-20 14:41N 34°39' E 135°28'0 0.0
2017-May-20 14:00N 34°39' E 135°28'0 0.0
2017-May-20 13:30N 34°39' E 135°28'0 0.0
2017-May-20 13:00N 34°39' E 135°28'0 0.0
2017-May-20 12:30N 34°39' E 135°28'3 6.3
2017-May-20 12:00N 34°39' E 135°24'0 0.1
2017-May-20 11:30N 34°39' E 135°24'0 0.1
2017-May-20 11:00N 34°39' E 135°24'2 4.1
2017-May-20 10:30N 34°39' E 135°27'1 1.8
2017-May-20 09:53N 34°39' E 135°28'0 0.0
2017-May-20 09:30N 34°39' E 135°28'0 0.0
2017-May-20 08:51N 34°39' E 135°28'0 0.0
2017-May-20 08:30N 34°39' E 135°28'0 0.0
2017-May-19 23:26N 34°39' E 135°28'1 3.5
2017-May-19 23:00N 34°40' E 135°26'1 3.0
2017-May-19 22:30N 34°39' E 135°25'0 0.7
2017-May-19 22:00N 34°39' E 135°24'2 4.5
2017-May-19 21:30N 34°39' E 135°27'1 0.1
2017-May-19 16:55N 34°39' E 135°28'0 0.0
2017-May-19 16:30N 34°39' E 135°28'0 0.0
2017-May-19 16:00N 34°39' E 135°28'0 0.0
2017-May-19 15:30N 34°39' E 135°28'0 0.0
2017-May-19 15:00N 34°39' E 135°28'0 0.0
2017-May-19 14:00N 34°39' E 135°28'0 0.0
2017-May-19 13:30N 34°39' E 135°28'0 0.0
2017-May-19 13:00N 34°39' E 135°28'0 0.0
2017-May-19 12:30N 34°39' E 135°28'0 0.0
2017-May-19 12:00N 34°39' E 135°28'0 0.0
2017-May-19 11:29N 34°39' E 135°28'0 0.0
2017-May-19 09:53N 34°39' E 135°28'0 0.0
2017-May-19 09:22N 34°39' E 135°28'3 8.9
2017-May-19 09:00N 34°39' E 135°24'3 3.9
2017-May-19 08:22N 34°40' E 135°27'0 0.1
2017-May-19 08:00N 34°40' E 135°27'0 0.0
2017-May-19 07:14N 34°40' E 135°27'0 0.0
2017-May-19 07:00N 34°40' E 135°27'0 0.0
2017-May-19 06:30N 34°40' E 135°27'0 0.1
2017-May-19 05:59N 34°40' E 135°27'0 0.1
2017-May-19 05:21N 34°40' E 135°27'0 0.0
2017-May-19 05:00N 34°40' E 135°27'0 0.0
2017-May-19 04:28N 34°40' E 135°27'0 0.0
2017-May-19 03:59N 34°40' E 135°27'0 0.0
2017-May-19 03:25N 34°40' E 135°27'0 0.7
2017-May-19 03:00N 34°40' E 135°26'1 1.8
2017-May-19 02:30N 34°39' E 135°25'2 0.6
2017-May-18 22:58N 34°39' E 135°28'0 0.0
2017-May-18 22:21N 34°39' E 135°28'0 0.0
2017-May-18 21:47N 34°39' E 135°28'2 8.7
2017-May-18 21:30N 34°39' E 135°25'1 1.3
2017-May-18 21:00N 34°39' E 135°24'3 5.3
2017-May-18 20:30N 34°39' E 135°27'  

Dump ship's entire track history